Time;durP1;ratioP1;P1;durP2;ratioP2;P2;SDS_P1;SDS_P2;PMS_P1;PMS_P2;Temp;Humidity;BMP_temperature;BMP_pressure;BME280_temperature;BME280_humidity;BME280_pressure;Samples;Min_cycle;Max_cycle;Signal;HPM_P1;HPM_P2
2022/02/05 00:00:34;;;;;;;0.10;0.10;;;4.80;99.90;;;;;;5031974;28;20026;-72
2022/02/05 00:03:13;;;;;;;0.00;0.00;;;4.80;99.90;;;;;;5032778;28;20033;-72
2022/02/05 00:41:15;;;;;;;0.30;0.30;;;4.60;99.90;;;;;;5036792;28;20045;-72
2022/02/05 00:43:53;;;;;;;0.03;0.03;;;4.50;99.90;;;;;;5036542;28;20112;-72
2022/02/05 00:46:20;;;;;;;0.10;0.10;;;4.50;99.90;;;;;;5021682;28;20030;-72
2022/02/05 00:48:45;;;;;;;1.65;0.73;;;4.50;99.90;;;;;;5035946;28;20033;-72
2022/02/05 00:51:19;;;;;;;0.00;0.00;;;4.50;99.90;;;;;;5035143;28;20038;-74
2022/02/05 00:53:49;;;;;;;0.10;0.10;;;4.50;99.90;;;;;;5035720;28;20028;-72
2022/02/05 00:58:41;;;;;;;0.43;0.43;;;4.50;99.90;;;;;;5035549;28;20037;-72
2022/02/05 01:01:08;;;;;;;0.20;0.20;;;4.40;99.90;;;;;;5036158;28;20034;-74
2022/02/05 01:03:36;;;;;;;0.15;0.15;;;4.40;99.90;;;;;;5034588;28;20026;-72
2022/02/05 01:06:02;;;;;;;0.00;0.00;;;4.30;99.90;;;;;;5036310;28;20037;-71
2022/02/05 01:08:29;;;;;;;0.17;0.17;;;4.20;99.90;;;;;;5035459;28;20072;-74
2022/02/05 01:10:55;;;;;;;0.00;0.00;;;4.20;99.90;;;;;;5036479;28;20079;-74
2022/02/05 01:13:21;;;;;;;0.13;0.13;;;4.10;99.90;;;;;;5035304;28;20017;-72
2022/02/05 01:16:07;;;;;;;0.38;0.38;;;4.00;99.90;;;;;;5035054;28;20022;-74
2022/02/05 01:18:35;;;;;;;15.52;2.40;;;4.00;99.90;;;;;;5035374;28;20030;-71
2022/02/05 01:24:03;;;;;;;0.10;0.10;;;3.90;99.90;;;;;;5035754;28;20064;-73
2022/02/05 01:26:28;;;;;;;0.00;0.00;;;4.00;99.90;;;;;;5033748;28;20050;-71
2022/02/05 01:29:40;;;;;;;0.63;0.22;;;3.90;99.90;;;;;;5035388;28;20021;-72
2022/02/05 01:31:51;;;;;;;0.00;0.00;;;3.80;99.90;;;;;;5034411;28;20037;-71
2022/02/05 01:34:28;;;;;;;0.00;0.00;;;3.80;99.90;;;;;;5035187;28;20013;-74
2022/02/05 02:11:53;;;;;;;0.08;0.08;;;3.30;99.90;;;;;;5035542;28;20037;-72
2022/02/05 02:24:18;;;;;;;0.00;0.00;;;3.20;99.90;;;;;;5034679;28;20057;-71
2022/02/05 02:29:27;;;;;;;0.47;0.43;;;3.10;99.90;;;;;;5034522;28;20082;-74
2022/02/05 02:31:55;;;;;;;0.00;0.00;;;3.10;99.90;;;;;;5033849;28;20492;-72
2022/02/05 02:34:26;;;;;;;0.08;0.08;;;3.00;99.90;;;;;;5033470;28;20061;-71
2022/02/05 02:36:57;;;;;;;0.00;0.00;;;3.10;99.90;;;;;;5034110;28;20032;-74
2022/02/05 02:39:41;;;;;;;1.65;0.65;;;3.10;99.90;;;;;;5032476;28;20055;-73
2022/02/05 02:42:10;;;;;;;13.57;0.70;;;3.00;99.90;;;;;;5034502;28;20515;-71
2022/02/05 02:44:36;;;;;;;0.65;0.63;;;3.00;99.90;;;;;;5033431;28;20021;-72
2022/02/05 02:47:02;;;;;;;0.00;0.00;;;3.00;99.90;;;;;;5020547;28;20511;-72
2022/02/05 02:57:53;;;;;;;0.00;0.00;;;3.00;99.90;;;;;;5034236;28;20087;-72
2022/02/05 03:00:20;;;;;;;1.80;0.98;;;2.90;99.90;;;;;;5033906;28;20404;-71
2022/02/05 03:02:46;;;;;;;0.00;0.00;;;2.80;99.90;;;;;;5033485;28;20021;-74
2022/02/05 03:05:14;;;;;;;0.15;0.15;;;2.80;99.90;;;;;;5033689;28;20389;-72
2022/02/05 03:07:40;;;;;;;0.10;0.10;;;2.70;99.90;;;;;;5033409;28;20520;-73
2022/02/05 03:10:06;;;;;;;12.25;3.03;;;2.70;99.90;;;;;;5032618;28;20017;-72
2022/02/05 03:12:34;;;;;;;0.10;0.10;;;2.70;99.90;;;;;;5033425;28;20014;-73
2022/02/05 03:15:00;;;;;;;0.43;0.43;;;2.60;99.90;;;;;;5033072;28;20026;-72
2022/02/05 03:17:32;;;;;;;0.00;0.00;;;2.60;99.90;;;;;;5033213;28;20374;-71
2022/02/05 03:19:58;;;;;;;0.22;0.22;;;2.60;99.90;;;;;;5033629;28;20119;-74
2022/02/05 03:22:25;;;;;;;0.35;0.32;;;2.60;99.90;;;;;;5033446;28;20396;-72
2022/02/05 03:24:54;;;;;;;5.97;2.35;;;2.60;99.90;;;;;;5033175;28;20057;-71
2022/02/05 03:27:21;;;;;;;5.30;1.10;;;2.60;99.90;;;;;;5033404;28;20087;-74
2022/02/05 03:29:49;;;;;;;0.00;0.00;;;2.50;99.90;;;;;;5033253;28;20079;-72
2022/02/05 03:32:17;;;;;;;0.00;0.00;;;2.50;99.90;;;;;;5033390;28;20018;-71
2022/02/05 03:34:43;;;;;;;1.55;0.30;;;2.50;99.90;;;;;;5033486;28;20030;-73
2022/02/05 03:37:09;;;;;;;0.40;0.30;;;2.50;99.90;;;;;;5033061;28;20093;-72
2022/02/05 03:39:34;;;;;;;0.00;0.00;;;2.50;99.90;;;;;;5033110;28;20483;-72
2022/02/05 03:42:01;;;;;;;0.52;0.43;;;2.50;99.90;;;;;;5032584;28;20447;-72
2022/02/05 03:44:27;;;;;;;0.15;0.15;;;2.50;99.90;;;;;;5032393;28;20084;-74
2022/02/05 03:46:54;;;;;;;0.08;0.08;;;2.50;99.90;;;;;;5031469;28;20025;-73
2022/02/05 03:49:24;;;;;;;0.00;0.00;;;2.50;99.90;;;;;;5032716;28;20076;-74
2022/02/05 03:51:51;;;;;;;0.00;0.00;;;2.40;99.90;;;;;;5033608;28;20049;-71
2022/02/05 03:54:19;;;;;;;0.03;0.03;;;2.40;99.90;;;;;;5032605;28;20412;-71
2022/02/05 03:56:45;;;;;;;1.20;0.65;;;2.40;99.90;;;;;;5033089;28;20018;-71
2022/02/05 03:59:11;;;;;;;0.10;0.10;;;2.40;99.90;;;;;;5032886;28;20083;-71
2022/02/05 04:01:37;;;;;;;13.57;1.00;;;2.40;99.90;;;;;;5033016;28;20022;-72
2022/02/05 04:04:03;;;;;;;0.73;0.38;;;2.30;99.90;;;;;;5032170;28;20037;-71
2022/02/05 04:06:28;;;;;;;0.38;0.38;;;2.30;99.90;;;;;;5031483;28;20029;-71
2022/02/05 04:08:57;;;;;;;0.30;0.20;;;2.30;99.90;;;;;;5032646;28;20036;-72
2022/02/05 04:16:51;;;;;;;0.90;0.90;;;2.20;99.90;;;;;;5031961;28;20091;-71
2022/02/05 04:19:17;;;;;;;0.00;0.00;;;2.20;99.90;;;;;;5031879;28;20034;-73
2022/02/05 04:21:42;;;;;;;0.00;0.00;;;2.20;99.90;;;;;;5033073;28;20492;-73
2022/02/05 04:24:09;;;;;;;0.20;0.20;;;2.30;99.90;;;;;;5032414;28;20025;-72
2022/02/05 04:26:35;;;;;;;0.00;0.00;;;2.30;99.90;;;;;;5032789;28;20021;-74
2022/02/05 04:29:10;;;;;;;0.20;0.20;;;2.30;99.90;;;;;;5032011;28;20033;-74
2022/02/05 04:31:37;;;;;;;0.00;0.00;;;2.30;99.90;;;;;;5032720;28;20022;-74
2022/02/05 04:34:04;;;;;;;0.70;0.60;;;2.30;99.90;;;;;;5032494;28;20022;-72
2022/02/05 04:36:31;;;;;;;0.00;0.00;;;2.30;99.90;;;;;;5032559;28;20010;-74
2022/02/05 04:39:03;;;;;;;0.10;0.10;;;2.30;99.90;;;;;;5032485;28;20028;-72
2022/02/05 04:41:41;;;;;;;0.15;0.15;;;2.30;99.90;;;;;;5032654;28;20430;-74
2022/02/05 05:10:18;;;;;;;4.13;1.42;;;2.10;99.90;;;;;;5035952;28;20576;-71
2022/02/05 05:12:55;;;;;;;2.10;1.17;;;2.10;99.90;;;;;;5035627;28;20045;-73
2022/02/05 05:20:56;;;;;;;0.00;0.00;;;2.00;99.90;;;;;;5036405;28;20152;-73
2022/02/05 05:23:22;;;;;;;0.85;0.85;;;1.90;99.90;;;;;;5035648;28;20029;-72
2022/02/05 05:25:47;;;;;;;0.00;0.00;;;2.00;99.90;;;;;;5035438;28;20046;-73
2022/02/05 05:28:14;;;;;;;0.25;0.25;;;1.90;99.90;;;;;;5035724;28;20026;-71
2022/02/05 05:30:40;;;;;;;1.38;0.30;;;2.00;99.90;;;;;;5034994;28;20017;-74
2022/02/05 05:33:06;;;;;;;2.90;1.55;;;2.00;99.90;;;;;;5035261;28;20029;-73
2022/02/05 05:35:32;;;;;;;3.50;0.98;;;2.10;99.90;;;;;;5035575;28;20029;-71
2022/02/05 05:37:58;;;;;;;0.00;0.00;;;2.10;99.90;;;;;;5035195;28;20029;-71
2022/02/05 05:40:23;;;;;;;2.40;1.50;;;2.10;99.90;;;;;;5035375;28;20030;-72
2022/02/05 05:42:57;;;;;;;0.00;0.00;;;2.10;99.90;;;;;;5035413;28;20041;-71
2022/02/05 05:48:11;;;;;;;0.00;0.00;;;2.10;99.90;;;;;;5028329;28;20547;-71
2022/02/05 05:53:08;;;;;;;0.10;0.10;;;2.00;99.90;;;;;;5034820;28;20397;-71
2022/02/05 05:55:34;;;;;;;0.32;0.32;;;2.00;99.90;;;;;;5035308;28;20026;-71
2022/02/05 05:58:00;;;;;;;0.20;0.20;;;2.00;99.90;;;;;;5035407;28;20381;-74
2022/02/05 06:00:26;;;;;;;1.10;0.68;;;2.00;99.90;;;;;;5035240;28;20029;-74
2022/02/05 06:02:52;;;;;;;1.17;0.75;;;2.00;99.90;;;;;;5034691;28;20408;-71
2022/02/05 06:05:18;;;;;;;0.32;0.32;;;1.90;99.90;;;;;;5033414;28;20443;-71
2022/02/05 06:07:44;;;;;;;0.35;0.35;;;1.90;99.90;;;;;;5034509;28;20021;-74
2022/02/05 06:10:10;;;;;;;0.00;0.00;;;1.90;99.90;;;;;;5034576;28;20022;-71
2022/02/05 06:12:35;;;;;;;0.00;0.00;;;1.80;99.90;;;;;;5034750;28;20032;-71
2022/02/05 06:15:05;;;;;;;1.95;1.17;;;1.80;99.90;;;;;;5035136;28;20064;-72
2022/02/05 06:17:31;;;;;;;0.55;0.55;;;1.80;99.90;;;;;;5033995;28;20071;-71
2022/02/05 06:19:56;;;;;;;1.00;0.52;;;1.80;99.90;;;;;;5034389;28;20021;-71
2022/02/05 06:22:22;;;;;;;0.03;0.03;;;1.80;99.90;;;;;;5034508;28;20112;-71
2022/02/05 06:24:48;;;;;;;0.00;0.00;;;1.80;99.90;;;;;;5034336;28;20053;-73
2022/02/05 06:27:13;;;;;;;0.40;0.40;;;1.80;99.90;;;;;;5034887;28;20484;-71
2022/02/05 06:29:39;;;;;;;0.45;0.45;;;1.80;99.90;;;;;;5034367;28;20034;-71
2022/02/05 06:32:06;;;;;;;0.55;0.55;;;1.80;99.90;;;;;;5034301;28;20436;-74
2022/02/05 06:34:32;;;;;;;0.00;0.00;;;1.80;99.90;;;;;;5034194;28;20028;-71
2022/02/05 06:36:57;;;;;;;1.50;1.00;;;1.80;99.90;;;;;;5034155;28;20025;-71
2022/02/05 06:39:23;;;;;;;0.10;0.10;;;1.80;99.90;;;;;;5033315;28;20033;-71
2022/02/05 06:41:49;;;;;;;0.10;0.10;;;1.80;99.90;;;;;;5034368;28;20034;-73
2022/02/05 06:44:15;;;;;;;0.30;0.30;;;1.80;99.90;;;;;;5034572;28;20091;-71
2022/02/05 06:46:42;;;;;;;0.75;0.20;;;1.80;99.90;;;;;;5033698;28;20028;-71
2022/02/05 06:49:07;;;;;;;0.10;0.10;;;1.80;99.90;;;;;;5033697;28;20026;-71
2022/02/05 06:51:34;;;;;;;0.10;0.10;;;1.80;99.90;;;;;;5034164;28;20078;-71
2022/02/05 06:54:00;;;;;;;0.25;0.25;;;1.80;99.90;;;;;;5033442;28;20018;-71
2022/02/05 06:56:26;;;;;;;2.55;1.95;;;1.90;99.90;;;;;;5034013;28;20102;-71
2022/02/05 06:58:52;;;;;;;0.73;0.70;;;1.90;99.90;;;;;;5034066;28;20445;-73
2022/02/05 07:01:17;;;;;;;2.22;1.30;;;1.90;99.90;;;;;;5033923;28;20408;-71
2022/02/05 07:03:43;;;;;;;0.30;0.30;;;2.00;99.90;;;;;;5033904;28;20030;-74
2022/02/05 07:06:09;;;;;;;0.10;0.10;;;2.00;99.90;;;;;;5033807;28;20503;-71
2022/02/05 07:08:34;;;;;;;0.13;0.13;;;2.00;99.90;;;;;;5033610;28;20025;-72
2022/02/05 07:11:00;;;;;;;1.00;1.00;;;1.90;99.90;;;;;;5034170;28;20061;-74
2022/02/05 07:13:26;;;;;;;1.40;1.30;;;1.90;99.90;;;;;;5033158;28;20030;-71
2022/02/05 07:16:38;;;;;;;0.68;0.68;;;1.90;99.90;;;;;;5032866;28;20036;-74
2022/02/05 07:18:54;;;;;;;0.17;0.17;;;1.90;99.90;;;;;;5029692;28;20042;-74
2022/02/05 07:21:30;;;;;;;2.83;1.42;;;1.80;99.90;;;;;;5032242;28;20099;-71
2022/02/05 07:24:18;;;;;;;1.10;1.10;;;1.80;99.90;;;;;;5021279;28;20451;-71
2022/02/05 07:29:25;;;;;;;1.13;1.02;;;1.70;99.90;;;;;;5013544;28;20040;-71
2022/02/05 07:31:56;;;;;;;0.35;0.35;;;1.70;99.90;;;;;;5013626;28;20096;-71
2022/02/05 07:34:31;;;;;;;1.42;1.15;;;1.70;99.90;;;;;;5013463;28;20036;-71
2022/02/05 07:37:02;;;;;;;0.10;0.10;;;1.70;99.90;;;;;;5021864;28;20018;-71
2022/02/05 07:39:37;;;;;;;0.08;0.08;;;1.70;99.90;;;;;;5032991;28;20562;-71
2022/02/05 07:42:03;;;;;;;0.10;0.10;;;1.70;99.90;;;;;;5033536;28;20037;-72
2022/02/05 07:44:29;;;;;;;0.10;0.10;;;1.70;99.90;;;;;;5033341;28;20022;-71
2022/02/05 07:46:59;;;;;;;0.68;0.68;;;1.70;99.90;;;;;;5032687;28;20079;-74
2022/02/05 07:49:25;;;;;;;0.30;0.30;;;1.70;99.90;;;;;;5032191;28;20500;-71
2022/02/05 07:51:51;;;;;;;0.20;0.20;;;1.80;99.90;;;;;;5032934;28;20026;-72
2022/02/05 07:54:17;;;;;;;0.10;0.10;;;1.80;99.90;;;;;;5032607;28;20100;-74
2022/02/05 07:56:45;;;;;;;0.52;0.30;;;1.80;99.90;;;;;;5033128;28;20025;-71
2022/02/05 07:59:12;;;;;;;0.10;0.10;;;2.00;99.90;;;;;;5032816;28;20035;-71
2022/02/05 08:01:38;;;;;;;0.88;0.88;;;2.10;99.90;;;;;;5033068;28;20497;-71
2022/02/05 08:04:04;;;;;;;0.95;0.85;;;2.20;99.90;;;;;;5032904;28;20033;-71
2022/02/05 08:06:30;;;;;;;2.33;1.30;;;2.30;99.90;;;;;;5033128;28;20105;-73
2022/02/05 08:09:00;;;;;;;1.55;0.98;;;2.40;99.90;;;;;;5032579;28;20485;-71
2022/02/05 08:11:37;;;;;;;4.00;1.38;;;2.50;99.90;;;;;;5032881;28;20108;-72
2022/02/05 08:14:07;;;;;;;0.40;0.40;;;2.50;99.90;;;;;;5032417;28;20025;-71
2022/02/05 08:16:48;;;;;;;0.57;0.57;;;2.60;99.90;;;;;;5032525;28;20022;-72
2022/02/05 08:19:14;;;;;;;1.95;0.40;;;2.60;99.90;;;;;;5032428;28;20067;-74
2022/02/05 08:21:39;;;;;;;0.43;0.43;;;2.70;99.90;;;;;;5033122;28;20021;-71
2022/02/05 08:24:06;;;;;;;0.57;0.57;;;2.70;99.90;;;;;;5031879;28;20135;-74
2022/02/05 08:26:32;;;;;;;2.38;0.80;;;2.80;99.90;;;;;;5032565;28;20054;-74
2022/02/05 08:29:02;;;;;;;1.50;1.00;;;2.90;99.90;;;;;;5034507;28;20041;-74
2022/02/05 08:31:29;;;;;;;0.10;0.10;;;3.00;99.90;;;;;;5036925;28;20032;-73
2022/02/05 08:33:55;;;;;;;1.30;0.80;;;3.30;99.90;;;;;;5036448;28;20021;-74
2022/02/05 08:36:23;;;;;;;0.13;0.13;;;3.40;99.90;;;;;;5036425;28;20048;-72
2022/02/05 08:38:50;;;;;;;7.13;0.40;;;3.50;99.90;;;;;;5036059;28;20025;-71
2022/02/05 08:41:15;;;;;;;0.32;0.32;;;3.60;99.90;;;;;;5036649;28;20026;-74
2022/02/05 08:43:41;;;;;;;0.68;0.68;;;3.70;99.90;;;;;;5036615;28;20033;-74
2022/02/05 08:46:07;;;;;;;0.43;0.43;;;3.90;99.90;;;;;;5036434;28;20087;-72
2022/02/05 08:48:32;;;;;;;1.10;0.70;;;4.20;99.90;;;;;;5035738;28;20473;-72
2022/02/05 08:50:58;;;;;;;0.20;0.20;;;4.30;99.90;;;;;;5036230;28;20485;-72
2022/02/05 08:53:24;;;;;;;0.63;0.30;;;4.40;99.90;;;;;;5035819;28;20029;-71
2022/02/05 08:55:52;;;;;;;0.20;0.20;;;4.50;99.90;;;;;;5036492;28;20061;-74
2022/02/05 08:58:19;;;;;;;0.10;0.10;;;4.80;99.90;;;;;;5036242;28;20481;-74
2022/02/05 09:00:51;;;;;;;0.43;0.43;;;5.10;99.90;;;;;;5035246;28;20028;-72
2022/02/05 09:03:33;;;;;;;0.30;0.30;;;5.30;99.90;;;;;;5036379;28;20021;-73
2022/02/05 09:06:01;;;;;;;0.45;0.45;;;5.50;99.90;;;;;;5036190;28;20068;-72
2022/02/05 09:08:32;;;;;;;1.00;0.75;;;5.60;99.90;;;;;;5035294;28;20025;-72
2022/02/05 09:11:13;;;;;;;0.52;0.52;;;5.70;99.90;;;;;;5036509;28;20041;-74
2022/02/05 09:16:10;;;;;;;0.98;0.98;;;5.90;99.90;;;;;;5035914;28;20021;-72
2022/02/05 09:18:36;;;;;;;1.27;1.27;;;6.00;99.90;;;;;;5034745;28;20485;-72
2022/02/05 09:21:03;;;;;;;0.30;0.30;;;6.10;99.90;;;;;;5035214;28;20025;-72
2022/02/05 09:23:29;;;;;;;0.20;0.20;;;6.20;99.90;;;;;;5035440;28;20087;-74
2022/02/05 09:25:55;;;;;;;1.77;1.05;;;6.30;99.90;;;;;;5035492;28;20053;-72
2022/02/05 09:28:22;;;;;;;8.45;0.65;;;6.50;99.90;;;;;;5035645;28;20116;-74
2022/02/05 09:33:33;;;;;;;0.75;0.75;;;6.80;99.90;;;;;;5036044;28;20064;-72
2022/02/05 09:35:59;;;;;;;1.95;1.17;;;7.00;99.90;;;;;;5034930;28;20075;-71
2022/02/05 09:38:25;;;;;;;0.40;0.40;;;7.10;99.90;;;;;;5035308;28;20025;-72
2022/02/05 09:40:51;;;;;;;2.65;1.10;;;7.30;99.90;;;;;;5034186;28;20033;-72
2022/02/05 09:43:25;;;;;;;0.28;0.28;;;7.40;99.90;;;;;;5035558;28;20038;-71
2022/02/05 09:45:51;;;;;;;0.52;0.40;;;7.50;99.90;;;;;;5035343;28;20075;-74
2022/02/05 09:48:18;;;;;;;0.65;0.65;;;7.60;99.90;;;;;;5034614;28;20029;-72
2022/02/05 09:50:45;;;;;;;0.47;0.47;;;7.70;99.90;;;;;;5035201;28;20017;-72
2022/02/05 09:53:15;;;;;;;0.35;0.30;;;7.80;99.90;;;;;;5034747;28;20032;-72
2022/02/05 09:55:46;;;;;;;2.10;1.40;;;7.90;99.90;;;;;;5035183;28;20369;-72
2022/02/05 09:58:13;;;;;;;0.13;0.13;;;8.00;99.90;;;;;;5035127;28;20112;-72
2022/02/05 10:00:38;;;;;;;0.77;0.77;;;8.00;99.90;;;;;;5035011;28;20589;-74
2022/02/05 10:03:26;;;;;;;0.00;0.00;;;8.10;99.90;;;;;;5034983;28;20109;-75
2022/02/05 10:06:13;;;;;;;0.20;0.20;;;8.20;99.90;;;;;;5035276;28;20036;-74
2022/02/05 10:08:43;;;;;;;4.60;1.95;;;8.40;99.90;;;;;;5034742;28;20029;-72
2022/02/05 10:11:09;;;;;;;0.75;0.75;;;8.50;99.90;;;;;;5034231;28;20425;-72
2022/02/05 10:13:36;;;;;;;0.20;0.20;;;8.60;99.90;;;;;;5034177;28;20061;-72
2022/02/05 10:16:02;;;;;;;0.00;0.00;;;8.70;99.90;;;;;;5034361;28;20017;-73
2022/02/05 10:18:39;;;;;;;0.43;0.43;;;8.80;99.90;;;;;;5034917;28;20104;-74
2022/02/05 10:21:31;;;;;;;0.65;0.65;;;8.90;99.90;;;;;;5034099;28;20029;-72
2022/02/05 10:24:11;;;;;;;0.63;0.22;;;9.00;99.90;;;;;;5024090;28;20056;-72
2022/02/05 10:26:44;;;;;;;1.13;0.73;;;9.10;99.90;;;;;;5014679;28;20044;-72
2022/02/05 10:29:15;;;;;;;0.20;0.20;;;9.20;99.90;;;;;;5014736;28;20096;-74
2022/02/05 10:32:15;;;;;;;0.05;0.05;;;9.40;99.90;;;;;;5014616;28;20031;-73
2022/02/05 10:35:15;;;;;;;0.00;0.00;;;9.40;99.90;;;;;;5014502;28;20018;-72
2022/02/05 10:37:50;;;;;;;0.70;0.55;;;9.50;99.90;;;;;;5032567;28;20022;-75
2022/02/05 10:40:22;;;;;;;0.80;0.80;;;9.60;99.90;;;;;;5034260;28;20112;-75
2022/02/05 10:43:03;;;;;;;0.00;0.00;;;9.70;99.90;;;;;;5034463;28;20096;-75
2022/02/05 10:45:45;;;;;;;0.47;0.47;;;9.60;99.90;;;;;;5034083;28;20035;-75
2022/02/05 10:48:19;;;;;;;0.27;0.27;;;9.70;99.90;;;;;;5033620;28;20018;-75
2022/02/05 10:50:46;;;;;;;0.00;0.00;;;9.80;99.90;;;;;;5033616;28;20021;-75
2022/02/05 10:53:30;;;;;;;1.65;1.08;;;9.90;99.90;;;;;;5033177;28;20087;-75
2022/02/05 11:07:09;;;;;;;0.10;0.10;;;10.40;99.90;;;;;;5033940;28;20128;-75
2022/02/05 11:09:37;;;;;;;0.45;0.45;;;10.70;99.90;;;;;;5033324;28;20029;-75
2022/02/05 11:19:59;;;;;;;1.10;0.65;;;10.90;99.90;;;;;;5032259;28;20522;-75
2022/02/05 11:22:28;;;;;;;0.00;0.00;;;11.20;99.90;;;;;;5033246;28;20029;-72
2022/02/05 11:24:54;;;;;;;0.77;0.45;;;11.10;99.90;;;;;;5014991;28;20061;-73
2022/02/05 11:27:20;;;;;;;0.05;0.05;;;11.00;99.90;;;;;;5014406;28;20030;-74
2022/02/05 11:29:45;;;;;;;0.00;0.00;;;11.10;99.90;;;;;;5014492;28;20040;-74
2022/02/05 11:32:27;;;;;;;1.48;1.13;;;10.80;99.90;;;;;;5013933;28;20053;-73
2022/02/05 11:35:18;;;;;;;2.20;0.63;;;10.80;99.90;;;;;;5013529;28;20433;-75
2022/02/05 11:38:03;;;;;;;0.00;0.00;;;10.90;99.90;;;;;;5028743;28;20036;-75
2022/02/05 11:40:49;;;;;;;0.15;0.15;;;10.80;99.90;;;;;;5033169;28;20028;-75
2022/02/05 11:43:21;;;;;;;0.00;0.00;;;11.00;99.90;;;;;;5033212;28;20396;-75
2022/02/05 11:46:12;;;;;;;0.10;0.10;;;11.20;99.90;;;;;;5033172;28;20112;-75
2022/02/05 11:48:50;;;;;;;0.45;0.45;;;11.00;99.90;;;;;;5028418;28;20172;-75
2022/02/05 11:51:25;;;;;;;0.32;0.32;;;10.50;99.90;;;;;;5033304;28;20032;-75
2022/02/05 11:53:59;;;;;;;0.00;0.00;;;10.50;99.90;;;;;;5032609;28;20396;-73
2022/02/05 11:59:46;;;;;;;2.55;1.20;;;11.20;99.90;;;;;;5033063;28;20033;-76
2022/02/05 12:02:19;;;;;;;0.00;0.00;;;11.20;99.90;;;;;;5032781;28;20036;-72
2022/02/05 12:04:45;;;;;;;1.35;0.77;;;11.00;99.90;;;;;;5033400;28;20119;-77
2022/02/05 12:07:12;;;;;;;0.00;0.00;;;11.00;99.90;;;;;;5032579;28;20037;-74
2022/02/05 12:09:46;;;;;;;0.00;0.00;;;11.00;99.90;;;;;;5033211;28;20064;-75
2022/02/05 12:12:39;;;;;;;0.15;0.10;;;11.20;99.90;;;;;;5034491;28;20026;-76
2022/02/05 12:15:17;;;;;;;0.50;0.40;;;11.20;99.90;;;;;;5032775;28;20400;-76
2022/02/05 12:20:31;;;;;;;0.00;0.00;;;10.70;99.90;;;;;;5032285;28;20064;-75
2022/02/05 12:23:05;;;;;;;0.38;0.38;;;11.00;99.90;;;;;;5032982;28;20508;-72
2022/02/05 12:25:31;;;;;;;0.35;0.35;;;11.30;99.90;;;;;;5032528;28;20045;-72
2022/02/05 12:28:16;;;;;;;0.10;0.10;;;11.70;99.90;;;;;;5032652;28;20381;-72
2022/02/05 12:30:44;;;;;;;0.85;0.45;;;11.90;99.90;;;;;;5032281;28;20080;-75
2022/02/05 12:33:10;;;;;;;0.00;0.00;;;12.10;99.90;;;;;;5032409;28;20053;-75
2022/02/05 12:35:37;;;;;;;0.20;0.05;;;12.10;99.90;;;;;;5032072;28;20060;-72
2022/02/05 12:38:05;;;;;;;0.00;0.00;;;12.10;99.90;;;;;;5032391;28;20021;-75
2022/02/05 12:40:41;;;;;;;1.02;0.80;;;12.10;99.90;;;;;;5033661;28;20018;-75
2022/02/05 12:43:07;;;;;;;2.85;1.00;;;11.80;99.90;;;;;;5032751;28;20022;-76
2022/02/05 12:45:44;;;;;;;0.15;0.05;;;11.50;99.90;;;;;;5032721;28;20101;-72
2022/02/05 12:48:11;;;;;;;0.95;0.43;;;11.50;99.90;;;;;;5030998;28;20512;-75
2022/02/05 12:50:38;;;;;;;0.00;0.00;;;11.50;99.90;;;;;;5032422;28;20033;-75
2022/02/05 12:53:06;;;;;;;5.18;1.55;;;11.50;99.90;;;;;;5031899;28;20030;-75
2022/02/05 12:55:34;;;;;;;0.00;0.00;;;11.50;99.90;;;;;;5033561;28;20388;-76
2022/02/05 12:58:02;;;;;;;0.47;0.47;;;11.40;99.90;;;;;;5032443;28;20018;-72
2022/02/05 13:00:28;;;;;;;0.00;0.00;;;11.50;99.90;;;;;;5032129;28;20026;-72
2022/02/05 13:02:54;;;;;;;0.38;0.35;;;11.60;99.90;;;;;;5032271;28;20021;-74
2022/02/05 13:05:34;;;;;;;10.60;1.55;;;11.70;99.90;;;;;;5032254;28;20072;-75
2022/02/05 13:07:59;;;;;;;0.00;0.00;;;11.70;99.90;;;;;;5032403;28;20108;-72
2022/02/05 13:10:26;;;;;;;0.00;0.00;;;11.60;99.90;;;;;;5031982;28;20445;-72
2022/02/05 13:12:56;;;;;;;0.03;0.03;;;11.50;99.90;;;;;;5031707;28;20124;-76
2022/02/05 13:15:27;;;;;;;4.57;1.98;;;11.50;99.90;;;;;;5034437;28;20527;-72
2022/02/05 13:26:08;;;;;;;0.00;0.00;;;11.90;99.90;;;;;;5015750;28;20473;-72
2022/02/05 13:34:05;;;;;;;0.20;0.20;;;11.90;99.90;;;;;;5016129;28;20115;-76
2022/02/05 13:36:44;;;;;;;0.00;0.00;;;11.80;99.90;;;;;;5020907;28;20025;-72
2022/02/05 13:42:41;;;;;;;1.08;0.30;;;11.80;99.90;;;;;;5013475;28;20504;-72
2022/02/05 13:45:13;;;;;;;1.90;1.00;;;11.80;99.90;;;;;;5013702;28;20034;-72
2022/02/05 13:47:45;;;;;;;0.10;0.10;;;11.80;99.90;;;;;;5012867;28;20265;-72
2022/02/05 13:50:15;;;;;;;0.60;0.60;;;11.50;99.90;;;;;;5014680;28;20030;-72
2022/02/05 13:52:42;;;;;;;0.00;0.00;;;11.50;99.90;;;;;;5013061;28;20026;-75
2022/02/05 13:55:16;;;;;;;0.05;0.05;;;11.60;99.90;;;;;;4996486;28;20080;-72
2022/02/05 13:58:04;;;;;;;0.35;0.20;;;11.40;99.90;;;;;;5013228;28;20061;-71
2022/02/05 14:01:03;;;;;;;0.15;0.15;;;11.60;99.90;;;;;;5013343;28;20030;-72
2022/02/05 14:03:34;;;;;;;0.08;0.08;;;11.50;99.90;;;;;;5013211;28;20161;-72
2022/02/05 14:06:13;;;;;;;0.00;0.00;;;11.60;99.90;;;;;;5012320;28;20022;-71
2022/02/05 14:08:44;;;;;;;0.00;0.00;;;11.40;99.90;;;;;;5011633;28;20113;-72
2022/02/05 14:11:12;;;;;;;0.10;0.10;;;11.60;99.90;;;;;;5012773;28;20030;-72
2022/02/05 14:13:39;;;;;;;0.45;0.45;;;11.70;99.90;;;;;;5026383;28;20526;-72
2022/02/05 14:16:07;;;;;;;0.55;0.22;;;11.60;99.90;;;;;;5033526;28;20025;-71
2022/02/05 14:18:46;;;;;;;0.55;0.55;;;11.50;99.90;;;;;;5035066;28;20410;-76
2022/02/05 14:21:13;;;;;;;0.00;0.00;;;11.60;99.90;;;;;;5034974;28;20082;-72
2022/02/05 14:23:51;;;;;;;0.00;0.00;;;11.50;99.90;;;;;;5028960;28;20105;-72
2022/02/05 14:26:19;;;;;;;0.00;0.00;;;11.40;99.90;;;;;;5013832;28;20038;-71
2022/02/05 14:28:45;;;;;;;0.13;0.13;;;11.50;99.90;;;;;;5014735;28;20112;-72
2022/02/05 14:36:47;;;;;;;4.75;0.70;;;11.50;99.90;;;;;;5017046;28;20022;-76
2022/02/05 14:42:00;;;;;;;3.13;0.08;;;11.60;99.90;;;;;;5034644;28;20034;-72
2022/02/05 14:44:25;;;;;;;0.00;0.00;;;11.90;99.90;;;;;;5034337;28;20037;-72
2022/02/05 14:46:51;;;;;;;0.00;0.00;;;12.20;99.90;;;;;;5033945;28;20025;-72
2022/02/05 14:49:17;;;;;;;1.73;0.10;;;11.90;99.90;;;;;;5032286;28;20033;-72
2022/02/05 14:51:44;;;;;;;0.05;0.05;;;11.70;99.90;;;;;;5034215;28;20496;-73
2022/02/05 14:54:10;;;;;;;2.25;0.95;;;11.60;99.90;;;;;;5034463;28;20552;-72
2022/02/05 14:56:36;;;;;;;0.00;0.00;;;11.60;99.90;;;;;;5034198;28;20365;-72
2022/02/05 14:59:04;;;;;;;0.05;0.05;;;11.60;99.90;;;;;;5033970;28;20044;-72
2022/02/05 15:01:30;;;;;;;0.00;0.00;;;11.60;99.90;;;;;;5033967;28;20075;-72
2022/02/05 15:03:57;;;;;;;0.65;0.05;;;12.10;99.90;;;;;;5033815;28;20057;-77
2022/02/05 15:06:26;;;;;;;5.55;0.10;;;12.40;99.90;;;;;;5033688;28;20025;-72
2022/02/05 15:08:53;;;;;;;0.00;0.00;;;12.30;99.90;;;;;;5034207;28;20037;-72
2022/02/05 15:11:20;;;;;;;0.70;0.70;;;12.20;99.90;;;;;;5033893;28;20061;-72
2022/02/05 15:13:47;;;;;;;0.00;0.00;;;12.10;99.90;;;;;;5033691;28;20026;-71
2022/02/05 15:16:17;;;;;;;0.43;0.43;;;11.70;99.90;;;;;;5033205;28;20022;-72
2022/02/05 15:18:51;;;;;;;0.00;0.00;;;11.60;99.90;;;;;;5033854;28;20037;-72
2022/02/05 15:21:16;;;;;;;0.45;0.40;;;11.60;99.90;;;;;;5033565;28;20108;-72
2022/02/05 15:23:42;;;;;;;0.00;0.00;;;11.70;99.90;;;;;;5029721;28;20078;-72
2022/02/05 15:26:08;;;;;;;3.78;1.27;;;11.90;99.90;;;;;;5013409;28;20049;-72
2022/02/05 15:28:33;;;;;;;0.00;0.00;;;11.80;99.90;;;;;;5014232;28;20030;-72
2022/02/05 15:31:02;;;;;;;0.40;0.25;;;11.60;99.90;;;;;;5014031;28;20028;-76
2022/02/05 15:33:27;;;;;;;0.00;0.00;;;11.60;99.90;;;;;;5016574;28;20104;-72
2022/02/05 15:35:57;;;;;;;8.25;0.40;;;11.40;99.90;;;;;;5013587;28;20156;-72
2022/02/05 15:38:33;;;;;;;0.00;0.00;;;11.40;99.90;;;;;;5013397;28;20076;-72
2022/02/05 15:43:52;;;;;;;0.08;0.08;;;12.00;99.90;;;;;;5013580;28;20512;-72
2022/02/05 15:46:19;;;;;;;0.00;0.00;;;11.90;99.90;;;;;;5013924;28;20080;-72
2022/02/05 15:48:45;;;;;;;0.00;0.00;;;11.60;99.90;;;;;;5032820;28;20065;-72
2022/02/05 15:51:11;;;;;;;0.00;0.00;;;11.40;99.90;;;;;;5033196;28;20021;-72
2022/02/05 15:53:51;;;;;;;0.00;0.00;;;11.30;99.90;;;;;;5032809;28;20029;-72
2022/02/05 15:59:05;;;;;;;0.00;0.00;;;11.60;99.90;;;;;;5033082;28;20071;-75
2022/02/05 16:01:30;;;;;;;0.00;0.00;;;11.80;99.90;;;;;;5032670;28;20028;-72
2022/02/05 16:03:56;;;;;;;0.00;0.00;;;12.00;99.90;;;;;;5032957;28;20025;-75
2022/02/05 16:06:22;;;;;;;0.05;0.05;;;12.00;99.90;;;;;;5032762;28;20030;-72
2022/02/05 16:08:48;;;;;;;0.00;0.00;;;11.80;99.90;;;;;;5032269;28;20026;-71
2022/02/05 16:11:17;;;;;;;0.00;0.00;;;12.00;99.90;;;;;;5032762;28;20028;-72
2022/02/05 16:13:44;;;;;;;0.00;0.00;;;12.00;99.90;;;;;;5032035;28;20041;-72
2022/02/05 16:16:10;;;;;;;0.05;0.05;;;11.80;99.90;;;;;;5032226;28;20022;-72
2022/02/05 16:18:36;;;;;;;0.00;0.00;;;11.80;99.90;;;;;;5032331;28;20022;-72
2022/02/05 16:21:01;;;;;;;0.00;0.00;;;11.70;99.90;;;;;;5033157;28;20029;-75
2022/02/05 16:23:27;;;;;;;0.00;0.00;;;11.60;99.90;;;;;;5031279;28;20548;-72
2022/02/05 16:25:53;;;;;;;0.00;0.00;;;11.40;99.90;;;;;;5032672;28;20060;-72
2022/02/05 16:28:18;;;;;;;0.00;0.00;;;11.70;99.90;;;;;;5032648;28;20544;-72